sensor_id;sensor_type;location;lat;lon;timestamp;P1;durP1;ratioP1;P2;durP2;ratioP2
55989;SDS011;41875;55.806;38.082;2022-12-20T00:01:52;15.70;;;6.30;;
55989;SDS011;41875;55.806;38.082;2022-12-20T00:06:51;11.52;;;5.28;;
55989;SDS011;41875;55.806;38.082;2022-12-20T00:09:19;12.57;;;5.10;;
55989;SDS011;41875;55.806;38.082;2022-12-20T00:14:16;13.98;;;5.38;;
55989;SDS011;41875;55.806;38.082;2022-12-20T00:19:12;14.25;;;5.20;;
55989;SDS011;41875;55.806;38.082;2022-12-20T00:21:42;13.18;;;5.63;;
55989;SDS011;41875;55.806;38.082;2022-12-20T00:24:11;14.68;;;5.35;;
55989;SDS011;41875;55.806;38.082;2022-12-20T00:31:36;14.98;;;5.93;;
55989;SDS011;41875;55.806;38.082;2022-12-20T00:34:08;11.95;;;4.80;;
55989;SDS011;41875;55.806;38.082;2022-12-20T00:36:38;12.55;;;4.82;;
55989;SDS011;41875;55.806;38.082;2022-12-20T00:39:08;13.30;;;5.07;;
55989;SDS011;41875;55.806;38.082;2022-12-20T00:41:37;13.73;;;5.22;;
55989;SDS011;41875;55.806;38.082;2022-12-20T00:44:05;12.40;;;4.55;;
55989;SDS011;41875;55.806;38.082;2022-12-20T00:46:34;13.45;;;4.97;;
55989;SDS011;41875;55.806;38.082;2022-12-20T00:49:02;11.35;;;5.25;;
55989;SDS011;41875;55.806;38.082;2022-12-20T00:51:33;12.40;;;4.88;;
55989;SDS011;41875;55.806;38.082;2022-12-20T00:54:01;12.95;;;4.72;;
55989;SDS011;41875;55.806;38.082;2022-12-20T00:56:31;12.48;;;5.10;;
55989;SDS011;41875;55.806;38.082;2022-12-20T00:59:00;12.50;;;4.85;;
55989;SDS011;41875;55.806;38.082;2022-12-20T01:01:29;12.10;;;5.75;;
55989;SDS011;41875;55.806;38.082;2022-12-20T01:04:00;14.23;;;5.57;;
55989;SDS011;41875;55.806;38.082;2022-12-20T01:08:57;16.90;;;6.13;;
55989;SDS011;41875;55.806;38.082;2022-12-20T01:11:28;15.32;;;5.72;;
55989;SDS011;41875;55.806;38.082;2022-12-20T01:13:59;12.65;;;4.75;;
55989;SDS011;41875;55.806;38.082;2022-12-20T01:16:30;15.77;;;6.45;;
55989;SDS011;41875;55.806;38.082;2022-12-20T01:19:01;14.57;;;5.85;;
55989;SDS011;41875;55.806;38.082;2022-12-20T01:21:30;12.05;;;5.38;;
55989;SDS011;41875;55.806;38.082;2022-12-20T01:23:59;14.27;;;5.82;;
55989;SDS011;41875;55.806;38.082;2022-12-20T01:26:28;15.98;;;5.25;;
55989;SDS011;41875;55.806;38.082;2022-12-20T01:28:59;14.32;;;5.43;;
55989;SDS011;41875;55.806;38.082;2022-12-20T01:31:30;12.85;;;5.40;;
55989;SDS011;41875;55.806;38.082;2022-12-20T01:36:27;15.18;;;5.90;;
55989;SDS011;41875;55.806;38.082;2022-12-20T01:38:57;12.77;;;5.47;;
55989;SDS011;41875;55.806;38.082;2022-12-20T01:41:27;14.05;;;5.28;;
55989;SDS011;41875;55.806;38.082;2022-12-20T01:44:00;15.32;;;6.93;;
55989;SDS011;41875;55.806;38.082;2022-12-20T01:46:30;16.60;;;7.38;;
55989;SDS011;41875;55.806;38.082;2022-12-20T01:49:01;13.98;;;5.90;;
55989;SDS011;41875;55.806;38.082;2022-12-20T01:51:38;17.90;;;7.07;;
55989;SDS011;41875;55.806;38.082;2022-12-20T01:54:11;16.42;;;6.22;;
55989;SDS011;41875;55.806;38.082;2022-12-20T01:56:44;15.48;;;6.38;;
55989;SDS011;41875;55.806;38.082;2022-12-20T01:59:18;13.70;;;6.25;;
55989;SDS011;41875;55.806;38.082;2022-12-20T02:01:46;16.52;;;6.47;;
55989;SDS011;41875;55.806;38.082;2022-12-20T02:04:16;16.77;;;6.28;;
55989;SDS011;41875;55.806;38.082;2022-12-20T02:09:13;15.57;;;6.40;;
55989;SDS011;41875;55.806;38.082;2022-12-20T02:11:48;12.73;;;5.30;;
55989;SDS011;41875;55.806;38.082;2022-12-20T02:14:35;14.18;;;6.88;;
55989;SDS011;41875;55.806;38.082;2022-12-20T02:17:17;15.35;;;5.63;;
55989;SDS011;41875;55.806;38.082;2022-12-20T02:23:34;13.50;;;5.53;;
55989;SDS011;41875;55.806;38.082;2022-12-20T02:26:30;13.07;;;5.75;;
55989;SDS011;41875;55.806;38.082;2022-12-20T02:29:18;12.07;;;5.10;;
55989;SDS011;41875;55.806;38.082;2022-12-20T02:31:58;11.95;;;4.70;;
55989;SDS011;41875;55.806;38.082;2022-12-20T02:34:32;11.27;;;4.95;;
55989;SDS011;41875;55.806;38.082;2022-12-20T02:37:03;9.35;;;4.43;;
55989;SDS011;41875;55.806;38.082;2022-12-20T02:39:33;13.55;;;5.30;;
55989;SDS011;41875;55.806;38.082;2022-12-20T02:42:05;12.43;;;4.80;;
55989;SDS011;41875;55.806;38.082;2022-12-20T02:44:36;11.07;;;4.82;;
55989;SDS011;41875;55.806;38.082;2022-12-20T02:47:32;10.70;;;4.65;;
55989;SDS011;41875;55.806;38.082;2022-12-20T02:50:06;12.32;;;4.90;;
55989;SDS011;41875;55.806;38.082;2022-12-20T02:52:35;12.57;;;4.97;;
55989;SDS011;41875;55.806;38.082;2022-12-20T02:55:08;12.88;;;5.47;;
55989;SDS011;41875;55.806;38.082;2022-12-20T02:57:40;11.82;;;5.00;;
55989;SDS011;41875;55.806;38.082;2022-12-20T03:00:23;13.48;;;5.43;;
55989;SDS011;41875;55.806;38.082;2022-12-20T03:02:53;13.23;;;5.55;;
55989;SDS011;41875;55.806;38.082;2022-12-20T03:05:42;12.07;;;5.72;;
55989;SDS011;41875;55.806;38.082;2022-12-20T03:08:16;13.27;;;6.22;;
55989;SDS011;41875;55.806;38.082;2022-12-20T03:10:45;12.02;;;5.25;;
55989;SDS011;41875;55.806;38.082;2022-12-20T03:13:14;13.48;;;5.43;;
55989;SDS011;41875;55.806;38.082;2022-12-20T03:15:53;13.18;;;5.43;;
55989;SDS011;41875;55.806;38.082;2022-12-20T03:18:26;13.85;;;5.85;;
55989;SDS011;41875;55.806;38.082;2022-12-20T03:20:54;11.57;;;5.25;;
55989;SDS011;41875;55.806;38.082;2022-12-20T03:23:23;12.02;;;5.15;;
55989;SDS011;41875;55.806;38.082;2022-12-20T03:28:32;12.95;;;4.90;;
55989;SDS011;41875;55.806;38.082;2022-12-20T03:31:01;10.95;;;5.07;;
55989;SDS011;41875;55.806;38.082;2022-12-20T03:33:35;13.80;;;5.68;;
55989;SDS011;41875;55.806;38.082;2022-12-20T03:36:07;16.15;;;6.07;;
55989;SDS011;41875;55.806;38.082;2022-12-20T03:38:36;14.02;;;5.50;;
55989;SDS011;41875;55.806;38.082;2022-12-20T03:41:06;13.55;;;5.25;;
55989;SDS011;41875;55.806;38.082;2022-12-20T03:43:36;15.43;;;5.93;;
55989;SDS011;41875;55.806;38.082;2022-12-20T03:46:04;13.32;;;5.25;;
55989;SDS011;41875;55.806;38.082;2022-12-20T03:48:38;14.23;;;5.85;;
55989;SDS011;41875;55.806;38.082;2022-12-20T03:51:08;13.85;;;5.65;;
55989;SDS011;41875;55.806;38.082;2022-12-20T03:53:37;15.70;;;5.82;;
55989;SDS011;41875;55.806;38.082;2022-12-20T03:56:06;14.75;;;6.25;;
55989;SDS011;41875;55.806;38.082;2022-12-20T03:58:35;12.05;;;5.20;;
55989;SDS011;41875;55.806;38.082;2022-12-20T04:01:15;14.65;;;5.38;;
55989;SDS011;41875;55.806;38.082;2022-12-20T04:03:47;16.30;;;5.57;;
55989;SDS011;41875;55.806;38.082;2022-12-20T04:06:16;13.50;;;5.35;;
55989;SDS011;41875;55.806;38.082;2022-12-20T04:08:46;13.05;;;5.30;;
55989;SDS011;41875;55.806;38.082;2022-12-20T04:11:22;17.70;;;5.35;;
55989;SDS011;41875;55.806;38.082;2022-12-20T04:14:20;15.20;;;5.60;;
55989;SDS011;41875;55.806;38.082;2022-12-20T04:16:49;14.98;;;6.40;;
55989;SDS011;41875;55.806;38.082;2022-12-20T04:19:23;15.85;;;6.70;;
55989;SDS011;41875;55.806;38.082;2022-12-20T04:21:51;15.20;;;5.65;;
55989;SDS011;41875;55.806;38.082;2022-12-20T04:24:41;18.58;;;6.15;;
55989;SDS011;41875;55.806;38.082;2022-12-20T04:27:35;15.43;;;6.20;;
55989;SDS011;41875;55.806;38.082;2022-12-20T04:30:06;14.23;;;5.47;;
55989;SDS011;41875;55.806;38.082;2022-12-20T04:32:36;14.70;;;5.35;;
55989;SDS011;41875;55.806;38.082;2022-12-20T04:35:08;20.33;;;6.55;;
55989;SDS011;41875;55.806;38.082;2022-12-20T04:37:40;18.63;;;6.35;;
55989;SDS011;41875;55.806;38.082;2022-12-20T04:40:10;13.63;;;5.90;;
55989;SDS011;41875;55.806;38.082;2022-12-20T04:42:46;17.77;;;6.05;;
55989;SDS011;41875;55.806;38.082;2022-12-20T04:45:15;16.92;;;6.40;;
55989;SDS011;41875;55.806;38.082;2022-12-20T04:47:45;15.90;;;5.75;;
55989;SDS011;41875;55.806;38.082;2022-12-20T04:50:18;16.77;;;5.82;;
55989;SDS011;41875;55.806;38.082;2022-12-20T04:52:46;15.63;;;6.50;;
55989;SDS011;41875;55.806;38.082;2022-12-20T04:55:35;16.98;;;7.50;;
55989;SDS011;41875;55.806;38.082;2022-12-20T04:58:04;20.25;;;7.72;;
55989;SDS011;41875;55.806;38.082;2022-12-20T05:00:36;21.15;;;7.85;;
55989;SDS011;41875;55.806;38.082;2022-12-20T05:03:18;21.52;;;9.82;;
55989;SDS011;41875;55.806;38.082;2022-12-20T05:05:48;25.85;;;9.82;;
55989;SDS011;41875;55.806;38.082;2022-12-20T05:08:17;24.13;;;10.90;;
55989;SDS011;41875;55.806;38.082;2022-12-20T05:10:49;26.25;;;9.73;;
55989;SDS011;41875;55.806;38.082;2022-12-20T05:15:49;25.65;;;10.63;;
55989;SDS011;41875;55.806;38.082;2022-12-20T05:18:22;23.08;;;10.35;;
55989;SDS011;41875;55.806;38.082;2022-12-20T05:20:59;23.52;;;8.98;;
55989;SDS011;41875;55.806;38.082;2022-12-20T05:23:48;30.88;;;9.68;;
55989;SDS011;41875;55.806;38.082;2022-12-20T05:26:57;29.33;;;9.63;;
55989;SDS011;41875;55.806;38.082;2022-12-20T05:29:26;27.50;;;9.93;;
55989;SDS011;41875;55.806;38.082;2022-12-20T05:31:55;27.58;;;10.15;;
55989;SDS011;41875;55.806;38.082;2022-12-20T05:34:24;28.20;;;11.40;;
55989;SDS011;41875;55.806;38.082;2022-12-20T05:36:55;31.33;;;11.57;;
55989;SDS011;41875;55.806;38.082;2022-12-20T05:39:29;26.95;;;10.85;;
55989;SDS011;41875;55.806;38.082;2022-12-20T05:42:00;33.45;;;10.88;;
55989;SDS011;41875;55.806;38.082;2022-12-20T05:44:30;32.28;;;12.10;;
55989;SDS011;41875;55.806;38.082;2022-12-20T05:46:59;35.13;;;12.32;;
55989;SDS011;41875;55.806;38.082;2022-12-20T05:49:34;31.17;;;10.82;;
55989;SDS011;41875;55.806;38.082;2022-12-20T05:52:08;31.38;;;10.82;;
55989;SDS011;41875;55.806;38.082;2022-12-20T05:54:38;26.52;;;10.88;;
55989;SDS011;41875;55.806;38.082;2022-12-20T05:57:13;31.65;;;9.85;;
55989;SDS011;41875;55.806;38.082;2022-12-20T05:59:42;23.30;;;9.27;;
55989;SDS011;41875;55.806;38.082;2022-12-20T06:02:16;36.72;;;11.93;;
55989;SDS011;41875;55.806;38.082;2022-12-20T06:04:59;24.85;;;9.70;;
55989;SDS011;41875;55.806;38.082;2022-12-20T06:07:30;26.55;;;9.63;;
55989;SDS011;41875;55.806;38.082;2022-12-20T06:09:59;30.02;;;10.70;;
55989;SDS011;41875;55.806;38.082;2022-12-20T06:12:43;27.65;;;9.75;;
55989;SDS011;41875;55.806;38.082;2022-12-20T06:15:12;31.63;;;9.95;;
55989;SDS011;41875;55.806;38.082;2022-12-20T06:17:42;28.35;;;8.27;;
55989;SDS011;41875;55.806;38.082;2022-12-20T06:20:22;31.48;;;10.70;;
55989;SDS011;41875;55.806;38.082;2022-12-20T06:22:56;27.02;;;10.00;;
55989;SDS011;41875;55.806;38.082;2022-12-20T06:25:31;34.97;;;12.23;;
55989;SDS011;41875;55.806;38.082;2022-12-20T06:28:00;29.58;;;10.20;;
55989;SDS011;41875;55.806;38.082;2022-12-20T06:30:29;29.48;;;10.25;;
55989;SDS011;41875;55.806;38.082;2022-12-20T06:33:17;26.15;;;10.20;;
55989;SDS011;41875;55.806;38.082;2022-12-20T06:35:48;27.90;;;11.40;;
55989;SDS011;41875;55.806;38.082;2022-12-20T06:38:21;29.85;;;10.77;;
55989;SDS011;41875;55.806;38.082;2022-12-20T06:40:49;36.60;;;10.93;;
55989;SDS011;41875;55.806;38.082;2022-12-20T06:43:18;34.00;;;10.43;;
55989;SDS011;41875;55.806;38.082;2022-12-20T06:48:15;34.42;;;10.93;;
55989;SDS011;41875;55.806;38.082;2022-12-20T06:50:43;27.15;;;10.23;;
55989;SDS011;41875;55.806;38.082;2022-12-20T06:53:24;30.40;;;11.13;;
55989;SDS011;41875;55.806;38.082;2022-12-20T06:55:56;32.65;;;11.52;;
55989;SDS011;41875;55.806;38.082;2022-12-20T06:58:24;31.52;;;10.60;;
55989;SDS011;41875;55.806;38.082;2022-12-20T07:08:19;33.28;;;11.10;;
55989;SDS011;41875;55.806;38.082;2022-12-20T07:10:49;29.02;;;12.07;;
55989;SDS011;41875;55.806;38.082;2022-12-20T07:13:18;40.20;;;13.40;;
55989;SDS011;41875;55.806;38.082;2022-12-20T07:15:47;34.15;;;12.77;;
55989;SDS011;41875;55.806;38.082;2022-12-20T07:18:16;33.83;;;11.55;;
55989;SDS011;41875;55.806;38.082;2022-12-20T07:23:15;33.17;;;13.05;;
55989;SDS011;41875;55.806;38.082;2022-12-20T07:25:52;30.00;;;11.70;;
55989;SDS011;41875;55.806;38.082;2022-12-20T07:28:22;30.00;;;12.55;;
55989;SDS011;41875;55.806;38.082;2022-12-20T07:30:52;32.55;;;11.85;;
55989;SDS011;41875;55.806;38.082;2022-12-20T07:33:20;30.50;;;10.73;;
55989;SDS011;41875;55.806;38.082;2022-12-20T07:35:51;32.42;;;12.15;;
55989;SDS011;41875;55.806;38.082;2022-12-20T07:38:26;30.92;;;11.77;;
55989;SDS011;41875;55.806;38.082;2022-12-20T07:40:57;29.42;;;11.57;;
55989;SDS011;41875;55.806;38.082;2022-12-20T07:43:25;28.52;;;11.80;;
55989;SDS011;41875;55.806;38.082;2022-12-20T07:45:54;27.55;;;11.45;;
55989;SDS011;41875;55.806;38.082;2022-12-20T07:48:24;26.80;;;10.45;;
55989;SDS011;41875;55.806;38.082;2022-12-20T07:50:52;32.35;;;10.98;;
55989;SDS011;41875;55.806;38.082;2022-12-20T07:53:25;21.80;;;9.88;;
55989;SDS011;41875;55.806;38.082;2022-12-20T07:55:57;25.60;;;9.30;;
55989;SDS011;41875;55.806;38.082;2022-12-20T07:58:27;24.30;;;11.52;;
55989;SDS011;41875;55.806;38.082;2022-12-20T08:00:57;23.95;;;8.80;;
55989;SDS011;41875;55.806;38.082;2022-12-20T08:03:26;25.10;;;9.77;;
55989;SDS011;41875;55.806;38.082;2022-12-20T08:06:00;27.23;;;9.13;;
55989;SDS011;41875;55.806;38.082;2022-12-20T08:08:31;24.85;;;9.50;;
55989;SDS011;41875;55.806;38.082;2022-12-20T08:11:04;23.23;;;8.52;;
55989;SDS011;41875;55.806;38.082;2022-12-20T08:13:36;23.15;;;8.60;;
55989;SDS011;41875;55.806;38.082;2022-12-20T08:16:12;19.90;;;8.18;;
55989;SDS011;41875;55.806;38.082;2022-12-20T08:18:40;28.58;;;9.93;;
55989;SDS011;41875;55.806;38.082;2022-12-20T08:21:09;24.10;;;10.02;;
55989;SDS011;41875;55.806;38.082;2022-12-20T08:23:38;21.33;;;8.27;;
55989;SDS011;41875;55.806;38.082;2022-12-20T08:26:08;22.80;;;9.00;;
55989;SDS011;41875;55.806;38.082;2022-12-20T08:28:38;19.63;;;8.35;;
55989;SDS011;41875;55.806;38.082;2022-12-20T08:31:07;20.13;;;7.32;;
55989;SDS011;41875;55.806;38.082;2022-12-20T08:33:37;20.23;;;7.05;;
55989;SDS011;41875;55.806;38.082;2022-12-20T08:36:07;22.88;;;7.78;;
55989;SDS011;41875;55.806;38.082;2022-12-20T08:38:38;18.88;;;7.47;;
55989;SDS011;41875;55.806;38.082;2022-12-20T08:41:09;17.85;;;7.57;;
55989;SDS011;41875;55.806;38.082;2022-12-20T08:43:39;22.55;;;8.55;;
55989;SDS011;41875;55.806;38.082;2022-12-20T08:46:09;20.30;;;8.45;;
55989;SDS011;41875;55.806;38.082;2022-12-20T08:48:38;16.08;;;7.07;;
55989;SDS011;41875;55.806;38.082;2022-12-20T08:51:07;19.30;;;8.07;;
55989;SDS011;41875;55.806;38.082;2022-12-20T08:53:37;17.23;;;6.90;;
55989;SDS011;41875;55.806;38.082;2022-12-20T08:58:36;18.83;;;7.93;;
55989;SDS011;41875;55.806;38.082;2022-12-20T09:01:06;18.08;;;7.72;;
55989;SDS011;41875;55.806;38.082;2022-12-20T09:03:37;15.88;;;6.70;;
55989;SDS011;41875;55.806;38.082;2022-12-20T09:06:06;18.17;;;7.18;;
55989;SDS011;41875;55.806;38.082;2022-12-20T09:08:37;17.65;;;6.93;;
55989;SDS011;41875;55.806;38.082;2022-12-20T09:11:07;17.80;;;7.20;;
55989;SDS011;41875;55.806;38.082;2022-12-20T09:13:39;17.05;;;6.63;;
55989;SDS011;41875;55.806;38.082;2022-12-20T09:16:10;17.70;;;6.03;;
55989;SDS011;41875;55.806;38.082;2022-12-20T09:18:41;16.05;;;5.40;;
55989;SDS011;41875;55.806;38.082;2022-12-20T09:21:10;11.45;;;4.93;;
55989;SDS011;41875;55.806;38.082;2022-12-20T09:23:39;17.95;;;5.30;;
55989;SDS011;41875;55.806;38.082;2022-12-20T09:26:09;13.07;;;5.38;;
55989;SDS011;41875;55.806;38.082;2022-12-20T09:28:40;14.57;;;5.18;;
55989;SDS011;41875;55.806;38.082;2022-12-20T09:31:10;17.13;;;5.30;;
55989;SDS011;41875;55.806;38.082;2022-12-20T09:33:40;15.07;;;5.38;;
55989;SDS011;41875;55.806;38.082;2022-12-20T09:36:10;11.40;;;4.00;;
55989;SDS011;41875;55.806;38.082;2022-12-20T09:38:39;16.52;;;5.22;;
55989;SDS011;41875;55.806;38.082;2022-12-20T09:41:14;12.25;;;4.80;;
55989;SDS011;41875;55.806;38.082;2022-12-20T09:43:52;10.27;;;4.53;;
55989;SDS011;41875;55.806;38.082;2022-12-20T09:46:24;10.10;;;3.75;;
55989;SDS011;41875;55.806;38.082;2022-12-20T09:48:55;11.05;;;4.43;;
55989;SDS011;41875;55.806;38.082;2022-12-20T09:51:28;14.25;;;4.60;;
55989;SDS011;41875;55.806;38.082;2022-12-20T09:54:14;11.88;;;4.03;;
55989;SDS011;41875;55.806;38.082;2022-12-20T09:56:50;10.57;;;4.68;;
55989;SDS011;41875;55.806;38.082;2022-12-20T10:02:06;13.20;;;4.18;;
55989;SDS011;41875;55.806;38.082;2022-12-20T10:04:56;15.38;;;4.47;;
55989;SDS011;41875;55.806;38.082;2022-12-20T10:07:29;15.40;;;4.68;;
55989;SDS011;41875;55.806;38.082;2022-12-20T10:10:15;14.57;;;4.00;;
55989;SDS011;41875;55.806;38.082;2022-12-20T10:12:56;8.90;;;3.67;;
55989;SDS011;41875;55.806;38.082;2022-12-20T10:18:12;11.02;;;4.00;;
55989;SDS011;41875;55.806;38.082;2022-12-20T10:20:56;8.85;;;3.88;;
55989;SDS011;41875;55.806;38.082;2022-12-20T10:23:32;11.98;;;4.85;;
55989;SDS011;41875;55.806;38.082;2022-12-20T10:26:07;12.00;;;4.13;;
55989;SDS011;41875;55.806;38.082;2022-12-20T10:28:37;18.25;;;4.95;;
55989;SDS011;41875;55.806;38.082;2022-12-20T10:31:11;13.15;;;4.28;;
55989;SDS011;41875;55.806;38.082;2022-12-20T10:33:41;11.68;;;4.45;;
55989;SDS011;41875;55.806;38.082;2022-12-20T10:36:18;13.10;;;4.65;;
55989;SDS011;41875;55.806;38.082;2022-12-20T10:38:50;10.63;;;3.63;;
55989;SDS011;41875;55.806;38.082;2022-12-20T10:41:21;13.02;;;4.47;;
55989;SDS011;41875;55.806;38.082;2022-12-20T10:43:52;8.48;;;3.72;;
55989;SDS011;41875;55.806;38.082;2022-12-20T10:46:35;11.45;;;3.80;;
55989;SDS011;41875;55.806;38.082;2022-12-20T10:49:20;9.23;;;3.45;;
55989;SDS011;41875;55.806;38.082;2022-12-20T10:51:55;11.23;;;3.70;;
55989;SDS011;41875;55.806;38.082;2022-12-20T10:54:28;10.98;;;3.67;;
55989;SDS011;41875;55.806;38.082;2022-12-20T10:56:59;10.85;;;4.22;;
55989;SDS011;41875;55.806;38.082;2022-12-20T10:59:31;9.88;;;3.47;;
55989;SDS011;41875;55.806;38.082;2022-12-20T11:02:08;10.73;;;3.80;;
55989;SDS011;41875;55.806;38.082;2022-12-20T11:05:18;11.77;;;4.25;;
55989;SDS011;41875;55.806;38.082;2022-12-20T11:07:52;8.80;;;3.35;;
55989;SDS011;41875;55.806;38.082;2022-12-20T11:10:42;8.80;;;3.60;;
55989;SDS011;41875;55.806;38.082;2022-12-20T11:13:22;12.25;;;3.70;;
55989;SDS011;41875;55.806;38.082;2022-12-20T11:15:54;11.27;;;3.55;;
55989;SDS011;41875;55.806;38.082;2022-12-20T11:18:31;10.57;;;4.03;;
55989;SDS011;41875;55.806;38.082;2022-12-20T11:21:12;17.95;;;4.65;;
55989;SDS011;41875;55.806;38.082;2022-12-20T11:23:56;10.43;;;4.15;;
55989;SDS011;41875;55.806;38.082;2022-12-20T11:26:33;10.98;;;4.20;;
55989;SDS011;41875;55.806;38.082;2022-12-20T11:29:14;13.55;;;5.10;;
55989;SDS011;41875;55.806;38.082;2022-12-20T11:32:01;10.70;;;3.95;;
55989;SDS011;41875;55.806;38.082;2022-12-20T11:34:41;14.30;;;4.00;;
55989;SDS011;41875;55.806;38.082;2022-12-20T11:37:18;10.43;;;3.70;;
55989;SDS011;41875;55.806;38.082;2022-12-20T11:39:52;13.35;;;4.28;;
55989;SDS011;41875;55.806;38.082;2022-12-20T11:42:35;10.93;;;4.22;;
55989;SDS011;41875;55.806;38.082;2022-12-20T11:45:18;10.90;;;4.28;;
55989;SDS011;41875;55.806;38.082;2022-12-20T11:51:12;9.85;;;4.20;;
55989;SDS011;41875;55.806;38.082;2022-12-20T11:53:53;12.65;;;4.22;;
55989;SDS011;41875;55.806;38.082;2022-12-20T11:56:29;14.20;;;4.75;;
55989;SDS011;41875;55.806;38.082;2022-12-20T11:59:10;14.45;;;5.45;;
55989;SDS011;41875;55.806;38.082;2022-12-20T12:01:46;11.68;;;4.55;;
55989;SDS011;41875;55.806;38.082;2022-12-20T12:04:19;18.45;;;5.20;;
55989;SDS011;41875;55.806;38.082;2022-12-20T12:06:55;16.45;;;5.70;;
55989;SDS011;41875;55.806;38.082;2022-12-20T12:09:29;15.77;;;5.45;;
55989;SDS011;41875;55.806;38.082;2022-12-20T12:12:07;18.35;;;5.68;;
55989;SDS011;41875;55.806;38.082;2022-12-20T12:14:43;13.87;;;5.80;;
55989;SDS011;41875;55.806;38.082;2022-12-20T12:17:19;13.73;;;5.40;;
55989;SDS011;41875;55.806;38.082;2022-12-20T12:20:01;15.68;;;5.75;;
55989;SDS011;41875;55.806;38.082;2022-12-20T12:22:48;13.23;;;5.50;;
55989;SDS011;41875;55.806;38.082;2022-12-20T12:25:26;14.77;;;4.97;;
55989;SDS011;41875;55.806;38.082;2022-12-20T12:27:56;15.63;;;4.93;;
55989;SDS011;41875;55.806;38.082;2022-12-20T12:30:26;15.23;;;6.00;;
55989;SDS011;41875;55.806;38.082;2022-12-20T12:33:04;12.27;;;4.93;;
55989;SDS011;41875;55.806;38.082;2022-12-20T12:35:52;12.98;;;4.65;;
55989;SDS011;41875;55.806;38.082;2022-12-20T12:44:47;14.10;;;5.32;;
55989;SDS011;41875;55.806;38.082;2022-12-20T12:47:33;15.02;;;5.18;;
55989;SDS011;41875;55.806;38.082;2022-12-20T12:50:06;14.00;;;4.50;;
55989;SDS011;41875;55.806;38.082;2022-12-20T12:52:44;12.52;;;4.15;;
55989;SDS011;41875;55.806;38.082;2022-12-20T12:55:38;12.75;;;5.43;;
55989;SDS011;41875;55.806;38.082;2022-12-20T13:01:01;9.10;;;4.07;;
55989;SDS011;41875;55.806;38.082;2022-12-20T13:03:35;14.77;;;4.85;;
55989;SDS011;41875;55.806;38.082;2022-12-20T13:09:21;14.70;;;4.68;;
55989;SDS011;41875;55.806;38.082;2022-12-20T13:18:31;10.25;;;4.75;;
55989;SDS011;41875;55.806;38.082;2022-12-20T13:21:16;11.80;;;5.45;;
55989;SDS011;41875;55.806;38.082;2022-12-20T13:35:54;12.52;;;4.97;;
55989;SDS011;41875;55.806;38.082;2022-12-20T13:50:27;15.00;;;4.53;;
55989;SDS011;41875;55.806;38.082;2022-12-20T13:53:01;10.95;;;4.43;;
55989;SDS011;41875;55.806;38.082;2022-12-20T13:55:33;14.10;;;4.47;;
55989;SDS011;41875;55.806;38.082;2022-12-20T13:58:05;12.75;;;4.57;;
55989;SDS011;41875;55.806;38.082;2022-12-20T14:00:40;9.85;;;4.15;;
55989;SDS011;41875;55.806;38.082;2022-12-20T14:03:15;9.73;;;4.22;;
55989;SDS011;41875;55.806;38.082;2022-12-20T14:05:48;11.15;;;4.45;;
55989;SDS011;41875;55.806;38.082;2022-12-20T14:08:19;12.52;;;4.32;;
55989;SDS011;41875;55.806;38.082;2022-12-20T14:10:52;13.52;;;4.35;;
55989;SDS011;41875;55.806;38.082;2022-12-20T14:15:50;14.15;;;5.78;;
55989;SDS011;41875;55.806;38.082;2022-12-20T14:18:22;13.77;;;5.45;;
55989;SDS011;41875;55.806;38.082;2022-12-20T14:20:52;11.57;;;4.38;;
55989;SDS011;41875;55.806;38.082;2022-12-20T14:23:22;16.42;;;4.72;;
55989;SDS011;41875;55.806;38.082;2022-12-20T14:25:54;11.63;;;3.78;;
55989;SDS011;41875;55.806;38.082;2022-12-20T14:28:27;15.45;;;5.07;;
55989;SDS011;41875;55.806;38.082;2022-12-20T14:30:58;11.98;;;4.72;;
55989;SDS011;41875;55.806;38.082;2022-12-20T14:33:34;11.13;;;4.30;;
55989;SDS011;41875;55.806;38.082;2022-12-20T14:36:08;14.23;;;4.97;;
55989;SDS011;41875;55.806;38.082;2022-12-20T14:38:45;12.25;;;4.97;;
55989;SDS011;41875;55.806;38.082;2022-12-20T14:41:28;19.88;;;5.40;;
55989;SDS011;41875;55.806;38.082;2022-12-20T14:44:02;36.90;;;7.40;;
55989;SDS011;41875;55.806;38.082;2022-12-20T14:46:45;13.63;;;4.80;;
55989;SDS011;41875;55.806;38.082;2022-12-20T14:49:19;15.82;;;5.15;;
55989;SDS011;41875;55.806;38.082;2022-12-20T14:51:51;11.98;;;4.43;;
55989;SDS011;41875;55.806;38.082;2022-12-20T14:54:32;15.90;;;5.25;;
55989;SDS011;41875;55.806;38.082;2022-12-20T14:57:22;12.57;;;4.43;;
55989;SDS011;41875;55.806;38.082;2022-12-20T15:00:00;13.18;;;4.72;;
55989;SDS011;41875;55.806;38.082;2022-12-20T15:02:34;13.90;;;4.00;;
55989;SDS011;41875;55.806;38.082;2022-12-20T15:05:09;11.88;;;4.68;;
55989;SDS011;41875;55.806;38.082;2022-12-20T15:08:15;10.32;;;4.20;;
55989;SDS011;41875;55.806;38.082;2022-12-20T15:10:52;14.85;;;4.85;;
55989;SDS011;41875;55.806;38.082;2022-12-20T15:13:24;11.43;;;4.47;;
55989;SDS011;41875;55.806;38.082;2022-12-20T15:15:57;9.32;;;4.15;;
55989;SDS011;41875;55.806;38.082;2022-12-20T15:18:26;14.82;;;5.25;;
55989;SDS011;41875;55.806;38.082;2022-12-20T15:21:09;16.48;;;4.95;;
55989;SDS011;41875;55.806;38.082;2022-12-20T15:23:41;14.25;;;5.60;;
55989;SDS011;41875;55.806;38.082;2022-12-20T15:26:13;13.88;;;5.35;;
55989;SDS011;41875;55.806;38.082;2022-12-20T15:28:43;12.68;;;4.50;;
55989;SDS011;41875;55.806;38.082;2022-12-20T15:31:13;12.48;;;4.43;;
55989;SDS011;41875;55.806;38.082;2022-12-20T15:33:44;17.42;;;4.95;;
55989;SDS011;41875;55.806;38.082;2022-12-20T15:36:16;14.55;;;5.35;;
55989;SDS011;41875;55.806;38.082;2022-12-20T15:38:46;14.55;;;5.35;;
55989;SDS011;41875;55.806;38.082;2022-12-20T15:41:35;15.18;;;5.28;;
55989;SDS011;41875;55.806;38.082;2022-12-20T15:44:05;13.65;;;4.68;;
55989;SDS011;41875;55.806;38.082;2022-12-20T15:46:39;18.15;;;6.10;;
55989;SDS011;41875;55.806;38.082;2022-12-20T15:49:12;14.88;;;5.78;;
55989;SDS011;41875;55.806;38.082;2022-12-20T15:51:44;15.70;;;5.22;;
55989;SDS011;41875;55.806;38.082;2022-12-20T15:54:18;14.60;;;5.35;;
55989;SDS011;41875;55.806;38.082;2022-12-20T15:56:53;13.68;;;4.82;;
55989;SDS011;41875;55.806;38.082;2022-12-20T15:59:23;13.40;;;4.60;;
55989;SDS011;41875;55.806;38.082;2022-12-20T16:02:16;15.00;;;5.13;;
55989;SDS011;41875;55.806;38.082;2022-12-20T16:04:49;13.07;;;5.18;;
55989;SDS011;41875;55.806;38.082;2022-12-20T16:07:19;16.00;;;5.22;;
55989;SDS011;41875;55.806;38.082;2022-12-20T16:09:48;16.52;;;5.35;;
55989;SDS011;41875;55.806;38.082;2022-12-20T16:12:18;12.73;;;4.80;;
55989;SDS011;41875;55.806;38.082;2022-12-20T16:14:50;16.88;;;4.55;;
55989;SDS011;41875;55.806;38.082;2022-12-20T16:17:19;14.68;;;4.93;;
55989;SDS011;41875;55.806;38.082;2022-12-20T16:19:48;13.95;;;4.90;;
55989;SDS011;41875;55.806;38.082;2022-12-20T16:22:17;13.73;;;5.60;;
55989;SDS011;41875;55.806;38.082;2022-12-20T16:24:49;12.85;;;5.13;;
55989;SDS011;41875;55.806;38.082;2022-12-20T16:27:18;15.35;;;5.03;;
55989;SDS011;41875;55.806;38.082;2022-12-20T16:29:47;14.25;;;6.05;;
55989;SDS011;41875;55.806;38.082;2022-12-20T16:32:16;13.13;;;4.53;;
55989;SDS011;41875;55.806;38.082;2022-12-20T16:34:47;13.18;;;5.45;;
55989;SDS011;41875;55.806;38.082;2022-12-20T16:37:17;13.30;;;5.03;;